createdAt,value
2018-11-02T00:00:37.650Z,10.40
2018-11-02T00:03:06.793Z,10.40
2018-11-02T00:05:42.286Z,10.40
2018-11-02T00:08:10.890Z,10.50
2018-11-02T00:10:40.098Z,10.40
2018-11-02T00:13:12.292Z,10.40
2018-11-02T00:15:46.475Z,10.40
2018-11-02T00:18:14.943Z,10.40
2018-11-02T00:20:46.500Z,10.40
2018-11-02T00:23:16.050Z,10.40
2018-11-02T00:25:46.756Z,10.40
2018-11-02T00:28:16.286Z,10.40
2018-11-02T00:30:49.870Z,10.40
2018-11-02T00:33:24.899Z,10.40
2018-11-02T00:35:57.054Z,10.40
2018-11-02T00:38:25.806Z,10.40
2018-11-02T00:40:54.442Z,10.30
2018-11-02T00:43:35.006Z,10.30
2018-11-02T00:46:07.002Z,10.40
2018-11-02T00:54:25.055Z,10.30
2018-11-02T00:56:53.733Z,10.30
2018-11-02T00:59:23.255Z,10.30
2018-11-02T01:01:51.908Z,10.30
2018-11-02T01:04:22.741Z,10.30
2018-11-02T01:06:55.019Z,10.30
2018-11-02T01:09:27.896Z,10.30
2018-11-02T01:11:59.751Z,10.30
2018-11-02T01:14:28.523Z,10.30
2018-11-02T01:17:00.435Z,10.30
2018-11-02T01:19:31.947Z,10.30
2018-11-02T01:22:02.249Z,10.30
2018-11-02T01:24:35.500Z,10.40
2018-11-02T01:27:04.289Z,10.30
2018-11-02T01:29:45.551Z,10.30
2018-11-02T01:32:14.285Z,10.30
2018-11-02T01:34:42.949Z,10.30
2018-11-02T01:37:14.892Z,10.20
2018-11-02T01:39:49.145Z,10.30
2018-11-02T01:42:24.816Z,10.30
2018-11-02T01:44:55.283Z,10.30
2018-11-02T01:47:30.383Z,10.30
2018-11-02T01:50:02.625Z,10.20
2018-11-02T01:52:36.714Z,10.20
2018-11-02T01:55:05.910Z,10.20
2018-11-02T01:57:40.062Z,10.20
2018-11-02T02:00:10.853Z,10.20
2018-11-02T02:02:39.429Z,10.20
2018-11-02T02:05:11.483Z,10.20
2018-11-02T02:07:40.951Z,10.20
2018-11-02T02:10:21.933Z,10.20
2018-11-02T02:12:51.417Z,10.20
2018-11-02T02:15:20.085Z,10.20
2018-11-02T02:17:52.078Z,10.20
2018-11-02T02:20:22.838Z,10.20
2018-11-02T02:22:54.817Z,10.20
2018-11-02T02:25:23.490Z,10.20
2018-11-02T02:27:57.688Z,10.20
2018-11-02T02:30:26.221Z,10.10
2018-11-02T02:32:58.526Z,10.10
2018-11-02T02:35:34.764Z,10.20
2018-11-02T02:38:03.270Z,10.10
2018-11-02T02:40:32.780Z,10.10
2018-11-02T02:43:07.025Z,10.10
2018-11-02T02:45:37.620Z,10.00
2018-11-02T02:48:06.367Z,10.00
2018-11-02T02:50:34.894Z,10.00
2018-11-02T02:53:09.103Z,10.00
2018-11-02T02:55:37.690Z,9.90
2018-11-02T02:58:06.266Z,9.90
2018-11-02T03:00:34.985Z,9.90
2018-11-02T03:03:06.075Z,9.90
2018-11-02T03:05:41.166Z,9.80
2018-11-02T03:08:09.679Z,9.80
2018-11-02T03:10:42.060Z,9.80
2018-11-02T03:13:11.695Z,9.80
2018-11-02T03:15:40.173Z,9.80
2018-11-02T03:18:14.245Z,9.80
2018-11-02T03:20:50.476Z,9.70
2018-11-02T03:23:18.967Z,9.70
2018-11-02T03:25:47.622Z,9.70
2018-11-02T03:28:19.609Z,9.70
2018-11-02T03:30:48.277Z,9.70
2018-11-02T03:33:16.963Z,9.70
2018-11-02T03:35:52.511Z,9.60
2018-11-02T03:38:28.075Z,9.60
2018-11-02T03:40:56.525Z,9.60
2018-11-02T03:43:25.294Z,9.60
2018-11-02T03:45:53.937Z,9.60
2018-11-02T03:48:22.598Z,9.60
2018-11-02T03:50:54.592Z,9.60
2018-11-02T03:53:26.611Z,9.60
2018-11-02T03:55:55.491Z,9.60
2018-11-02T03:58:25.140Z,9.50
2018-11-02T04:01:05.724Z,9.50
2018-11-02T04:03:44.107Z,9.40
2018-11-02T04:06:16.596Z,9.40
2018-11-02T04:08:45.361Z,9.30
2018-11-02T04:11:13.972Z,9.20
2018-11-02T04:13:49.463Z,9.20
2018-11-02T04:16:17.955Z,9.20
2018-11-02T04:18:47.386Z,9.20
2018-11-02T04:21:18.979Z,9.20
2018-11-02T04:23:47.621Z,9.20
2018-11-02T04:26:16.407Z,9.20
2018-11-02T04:28:50.994Z,9.20
2018-11-02T04:31:19.505Z,9.10
2018-11-02T04:34:01.622Z,9.10
2018-11-02T04:36:31.999Z,9.10
2018-11-02T04:39:01.483Z,9.10
2018-11-02T04:41:30.187Z,9.10
2018-11-02T04:43:58.858Z,9.10
2018-11-02T04:46:33.307Z,9.10
2018-11-02T04:49:08.262Z,9.10
2018-11-02T04:51:36.954Z,9.00
2018-11-02T04:54:05.653Z,9.00
2018-11-02T04:56:34.153Z,9.00
2018-11-02T04:59:04.518Z,9.00
2018-11-02T05:01:36.493Z,9.00
2018-11-02T05:04:06.149Z,9.00
2018-11-02T05:06:34.651Z,9.00
2018-11-02T05:09:05.557Z,9.00
2018-11-02T05:11:34.131Z,9.00
2018-11-02T05:14:02.859Z,9.00
2018-11-02T05:16:37.844Z,9.00
2018-11-02T05:19:10.107Z,9.00
2018-11-02T05:21:45.151Z,9.00
2018-11-02T05:24:17.341Z,9.00
2018-11-02T05:26:50.937Z,9.00
2018-11-02T05:29:19.580Z,9.00
2018-11-02T05:31:51.250Z,9.00
2018-11-02T05:34:19.954Z,9.00
2018-11-02T05:36:54.050Z,9.00
2018-11-02T05:39:29.752Z,8.90
2018-11-02T05:42:05.397Z,9.00
2018-11-02T05:44:35.903Z,9.00
2018-11-02T05:47:05.377Z,9.00
2018-11-02T05:49:39.951Z,8.90
2018-11-02T05:52:26.209Z,9.00
2018-11-02T05:54:54.680Z,9.00
2018-11-02T05:57:24.150Z,9.00
2018-11-02T05:59:53.760Z,9.00
2018-11-02T06:02:25.768Z,8.90
2018-11-02T06:04:54.371Z,8.90
2018-11-02T06:07:23.829Z,8.90
2018-11-02T06:09:56.264Z,8.90
2018-11-02T06:12:26.195Z,8.90
2018-11-02T06:14:58.511Z,8.90
2018-11-02T06:17:30.516Z,8.90
2018-11-02T06:20:02.088Z,8.80
2018-11-02T06:22:47.493Z,8.80
2018-11-02T06:25:16.251Z,8.80
2018-11-02T06:28:02.831Z,8.80
2018-11-02T06:36:36.896Z,8.70
2018-11-02T06:39:08.074Z,8.70
2018-11-02T06:41:36.896Z,8.70
2018-11-02T06:44:05.594Z,8.60
2018-11-02T06:46:35.126Z,8.60
2018-11-02T06:49:10.406Z,8.60
2018-11-02T06:51:38.902Z,8.50
2018-11-02T06:54:11.514Z,8.50
2018-11-02T06:56:46.781Z,8.50
2018-11-02T06:59:17.525Z,8.40
2018-11-02T07:01:45.963Z,8.40
2018-11-02T07:04:17.514Z,8.30
2018-11-02T07:06:48.495Z,8.30
2018-11-02T07:09:20.493Z,8.20
2018-11-02T07:11:49.141Z,8.20
2018-11-02T07:14:18.897Z,8.10
2018-11-02T07:16:47.511Z,8.10
2018-11-02T07:19:22.302Z,8.00
2018-11-02T07:21:54.547Z,8.00
2018-11-02T07:24:24.346Z,8.00
2018-11-02T07:26:52.995Z,7.90
2018-11-02T07:29:21.790Z,8.00
2018-11-02T07:31:50.588Z,7.90
2018-11-02T07:34:26.037Z,7.90
2018-11-02T07:36:54.965Z,7.90
2018-11-02T07:39:33.777Z,7.90
2018-11-02T07:42:08.471Z,7.80
2018-11-02T07:44:37.193Z,7.80
2018-11-02T07:47:07.391Z,7.80
2018-11-02T07:49:47.761Z,7.80
2018-11-02T07:52:16.656Z,7.80
2018-11-02T07:54:46.081Z,7.80
2018-11-02T07:57:15.683Z,7.80
2018-11-02T07:59:48.131Z,7.80
2018-11-02T08:02:17.189Z,7.80
2018-11-02T08:04:49.907Z,7.80
2018-11-02T08:07:22.417Z,7.80
2018-11-02T08:09:51.470Z,7.80
2018-11-02T08:12:20.481Z,7.80
2018-11-02T08:14:49.539Z,7.90
2018-11-02T08:17:19.426Z,7.80
2018-11-02T08:19:50.212Z,7.90
2018-11-02T08:22:19.251Z,7.90
2018-11-02T08:24:54.119Z,7.90
2018-11-02T08:27:23.050Z,7.90
2018-11-02T08:29:53.419Z,8.00
2018-11-02T08:32:23.309Z,8.00
2018-11-02T08:34:57.839Z,8.00
2018-11-02T08:37:34.773Z,8.00
2018-11-02T08:40:03.826Z,8.00
2018-11-02T08:42:32.796Z,8.10
2018-11-02T08:45:01.522Z,8.10
2018-11-02T08:47:34.878Z,8.10
2018-11-02T08:50:05.108Z,8.20
2018-11-02T08:52:39.587Z,8.20
2018-11-02T08:55:18.144Z,8.20
2018-11-02T08:57:53.828Z,8.30
2018-11-02T09:00:28.167Z,8.30
2018-11-02T09:03:00.885Z,8.40
2018-11-02T09:05:29.488Z,8.40
2018-11-02T09:08:00.192Z,8.50
2018-11-02T09:10:28.682Z,8.50
2018-11-02T09:12:57.364Z,8.60
2018-11-02T09:15:29.320Z,8.60
2018-11-02T09:18:00.035Z,8.60
2018-11-02T09:20:34.277Z,8.60
2018-11-02T09:23:02.774Z,8.60
2018-11-02T09:25:32.293Z,8.70
2018-11-02T09:28:04.351Z,8.70
2018-11-02T09:30:32.958Z,8.70
2018-11-02T09:33:06.919Z,8.80
2018-11-02T09:35:35.631Z,8.80
2018-11-02T09:38:05.374Z,8.90
2018-11-02T09:40:33.959Z,8.90
2018-11-02T09:43:03.306Z,9.00
2018-11-02T09:45:32.865Z,9.10
2018-11-02T09:48:05.881Z,9.10
2018-11-02T09:50:40.260Z,9.10
2018-11-02T09:53:18.998Z,9.30
2018-11-02T09:55:51.387Z,9.40
2018-11-02T09:58:26.334Z,9.40
2018-11-02T10:00:55.099Z,9.50
2018-11-02T10:03:35.411Z,9.50
2018-11-02T10:06:09.654Z,9.50
2018-11-02T10:08:43.048Z,9.60
2018-11-02T10:11:11.767Z,9.60
2018-11-02T10:13:40.391Z,9.70
2018-11-02T10:16:14.683Z,9.70
2018-11-02T10:18:48.598Z,9.70
2018-11-02T10:21:17.105Z,9.70
2018-11-02T10:23:46.710Z,9.80
2018-11-02T10:26:15.323Z,9.80
2018-11-02T10:28:43.992Z,9.80
2018-11-02T10:31:19.897Z,9.80
2018-11-02T10:33:48.349Z,9.90
2018-11-02T10:36:17.041Z,10.10
2018-11-02T10:38:45.778Z,10.20
2018-11-02T10:41:17.238Z,10.30
2018-11-02T10:43:49.349Z,10.50
2018-11-02T10:46:17.909Z,10.80
2018-11-02T10:49:04.942Z,10.80
2018-11-02T10:51:34.492Z,10.70
2018-11-02T10:54:03.212Z,10.50
2018-11-02T10:56:38.716Z,10.40
2018-11-02T10:59:07.141Z,10.40
2018-11-02T11:01:41.182Z,10.40
2018-11-02T11:04:10.687Z,10.50
2018-11-02T11:06:39.364Z,10.70
2018-11-02T11:09:13.991Z,10.80
2018-11-02T11:11:42.899Z,10.90
2018-11-02T11:14:12.586Z,11.10
2018-11-02T11:16:41.048Z,11.10
2018-11-02T11:19:11.142Z,11.20
2018-11-02T11:21:40.634Z,11.30
2018-11-02T11:24:09.167Z,11.40
2018-11-02T11:26:39.921Z,11.40
2018-11-02T11:29:20.887Z,11.40
2018-11-02T11:31:50.408Z,11.40
2018-11-02T11:34:21.110Z,11.30
2018-11-02T11:36:51.888Z,11.30
2018-11-02T11:39:21.456Z,11.20
2018-11-02T11:41:49.819Z,11.30
2018-11-02T11:44:18.331Z,11.30
2018-11-02T11:46:47.862Z,11.40
2018-11-02T11:49:17.557Z,11.50
2018-11-02T11:51:50.161Z,11.60
2018-11-02T11:54:20.234Z,11.70
2018-11-02T11:56:48.751Z,11.70
2018-11-02T11:59:20.761Z,11.60
2018-11-02T12:01:49.361Z,11.50
2018-11-02T12:04:25.814Z,11.50
2018-11-02T12:06:56.200Z,11.50
2018-11-02T12:09:34.498Z,11.30
2018-11-02T12:12:03.012Z,11.20
2018-11-02T12:14:36.616Z,11.20
2018-11-02T12:17:10.177Z,11.10
2018-11-02T12:19:38.816Z,11.10
2018-11-02T12:22:08.511Z,11.00
2018-11-02T12:24:37.122Z,11.10
2018-11-02T12:27:09.043Z,11.10
2018-11-02T12:29:40.572Z,11.20
2018-11-02T12:32:12.540Z,11.20
2018-11-02T12:34:41.279Z,11.10
2018-11-02T12:37:13.285Z,11.20
2018-11-02T12:39:47.364Z,11.20
2018-11-02T12:42:15.938Z,11.20
2018-11-02T12:44:47.427Z,11.10
2018-11-02T12:47:16.154Z,11.00
2018-11-02T12:49:50.411Z,10.90
2018-11-02T12:52:18.905Z,10.90
2018-11-02T12:54:47.486Z,10.90
2018-11-02T12:57:17.266Z,10.90
2018-11-02T12:59:45.746Z,11.00
2018-11-02T13:02:17.684Z,10.90
2018-11-02T13:04:50.425Z,11.00
2018-11-02T13:07:19.150Z,11.00
2018-11-02T13:09:53.393Z,11.00
2018-11-02T13:12:21.899Z,11.00
2018-11-02T13:14:51.303Z,11.00
2018-11-02T13:17:22.941Z,11.00
2018-11-02T13:19:57.108Z,11.10
2018-11-02T13:22:25.643Z,11.20
2018-11-02T13:24:54.285Z,11.20
2018-11-02T13:27:23.790Z,11.10
2018-11-02T13:29:53.348Z,11.00
2018-11-02T13:32:22.664Z,10.80
2018-11-02T13:34:52.376Z,10.80
2018-11-02T13:37:26.401Z,10.80
2018-11-02T13:40:00.058Z,10.90
2018-11-02T13:42:28.629Z,10.90
2018-11-02T13:45:04.118Z,10.80
2018-11-02T13:47:33.764Z,10.80
2018-11-02T13:50:06.456Z,10.80
2018-11-02T13:52:36.093Z,10.90
2018-11-02T13:55:09.251Z,10.90
2018-11-02T13:57:40.304Z,10.90
2018-11-02T14:00:12.026Z,11.00
2018-11-02T14:02:40.683Z,11.00
2018-11-02T14:05:10.808Z,11.00
2018-11-02T14:07:39.292Z,11.10
2018-11-02T14:10:08.706Z,11.20
2018-11-02T14:12:37.400Z,11.30
2018-11-02T14:15:08.007Z,11.20
2018-11-02T14:17:36.656Z,11.20
2018-11-02T14:20:06.614Z,11.20
2018-11-02T14:22:36.534Z,11.10
2018-11-02T14:25:10.422Z,11.00
2018-11-02T14:27:39.134Z,10.90
2018-11-02T14:30:11.450Z,10.80
2018-11-02T14:32:40.248Z,10.70
2018-11-02T14:35:10.925Z,10.60
2018-11-02T14:37:39.623Z,10.50
2018-11-02T14:40:09.074Z,10.50
2018-11-02T14:42:38.588Z,10.50
2018-11-02T14:45:09.482Z,10.50
2018-11-02T14:47:37.926Z,10.50
2018-11-02T14:50:07.951Z,10.50
2018-11-02T14:52:36.524Z,10.50
2018-11-02T14:55:06.205Z,10.50
2018-11-02T14:57:34.704Z,10.50
2018-11-02T15:00:07.769Z,10.50
2018-11-02T15:02:37.391Z,10.50
2018-11-02T15:05:07.263Z,10.40
2018-11-02T15:07:36.829Z,10.40
2018-11-02T15:10:06.387Z,10.50
2018-11-02T15:12:34.997Z,10.40
2018-11-02T15:15:08.103Z,10.40
2018-11-02T15:17:38.933Z,10.30
2018-11-02T15:20:10.616Z,10.30
2018-11-02T15:22:39.178Z,10.20
2018-11-02T15:25:11.137Z,10.20
2018-11-02T15:27:39.879Z,10.10
2018-11-02T15:30:12.217Z,10.10
2018-11-02T15:32:45.055Z,10.10
2018-11-02T15:35:13.762Z,10.10
2018-11-02T15:37:43.555Z,10.00
2018-11-02T15:40:13.184Z,10.00
2018-11-02T15:42:42.079Z,9.90
2018-11-02T15:45:15.930Z,9.80
2018-11-02T15:47:45.196Z,9.80
2018-11-02T15:50:14.758Z,9.70
2018-11-02T15:52:49.153Z,9.70
2018-11-02T15:55:23.956Z,9.60
2018-11-02T15:57:52.342Z,9.60
2018-11-02T16:00:21.365Z,9.50
2018-11-02T16:02:53.391Z,9.40
2018-11-02T16:05:22.054Z,9.40
2018-11-02T16:07:51.600Z,9.40
2018-11-02T16:10:23.572Z,9.30
2018-11-02T16:12:52.210Z,9.20
2018-11-02T16:15:32.946Z,9.10
2018-11-02T16:18:02.280Z,9.10
2018-11-02T16:20:36.339Z,9.10
2018-11-02T16:23:11.150Z,9.00
2018-11-02T16:25:43.151Z,9.00
2018-11-02T16:28:17.334Z,8.90
2018-11-02T16:30:45.840Z,8.90
2018-11-02T16:33:14.524Z,8.80
2018-11-02T16:35:45.783Z,8.80
2018-11-02T16:38:14.360Z,8.80
2018-11-02T16:40:42.968Z,8.80
2018-11-02T16:43:12.861Z,8.70
2018-11-02T16:45:43.357Z,8.70
2018-11-02T16:48:17.222Z,8.70
2018-11-02T16:50:47.674Z,8.60
2018-11-02T16:53:16.288Z,8.60
2018-11-02T16:55:48.466Z,8.50
2018-11-02T16:58:18.269Z,8.50
2018-11-02T17:00:47.054Z,8.50
2018-11-02T17:03:16.748Z,8.40
2018-11-02T17:05:47.655Z,8.40
2018-11-02T17:08:16.177Z,8.30
2018-11-02T17:10:47.007Z,8.30
2018-11-02T17:13:15.597Z,8.30
2018-11-02T17:15:46.422Z,8.20
2018-11-02T17:18:21.065Z,8.10
2018-11-02T17:20:50.838Z,8.10
2018-11-02T17:23:19.414Z,8.00
2018-11-02T17:25:48.142Z,8.00
2018-11-02T17:28:16.769Z,7.80
2018-11-02T17:30:49.134Z,7.80
2018-11-02T17:33:17.804Z,7.70
2018-11-02T17:35:52.016Z,7.60
2018-11-02T17:41:27.290Z,7.50
2018-11-02T17:43:55.998Z,7.50
2018-11-02T17:46:24.603Z,7.50
2018-11-02T17:48:53.326Z,7.40
2018-11-02T17:51:22.051Z,7.30
2018-11-02T17:53:56.433Z,7.20
2018-11-02T17:56:25.124Z,7.20
2018-11-02T17:58:54.621Z,7.10
2018-11-02T18:01:25.469Z,7.10
2018-11-02T18:03:54.036Z,7.00
2018-11-02T18:06:22.782Z,6.90
2018-11-02T18:08:52.297Z,6.90
2018-11-02T18:11:24.182Z,6.80
2018-11-02T18:13:56.183Z,6.70
2018-11-02T18:16:24.848Z,6.60
2018-11-02T18:18:53.664Z,6.60
2018-11-02T18:21:24.302Z,6.50
2018-11-02T18:23:58.296Z,6.50
2018-11-02T18:26:27.126Z,6.40
2018-11-02T18:28:55.981Z,6.30
2018-11-02T18:31:31.137Z,6.30
2018-11-02T18:34:06.026Z,6.30
2018-11-02T18:36:36.557Z,6.20
2018-11-02T18:39:11.134Z,6.10
2018-11-02T18:41:41.235Z,6.10
2018-11-02T18:44:11.162Z,6.00
2018-11-02T18:46:43.562Z,6.00
2018-11-02T18:49:17.516Z,6.00
2018-11-02T18:51:46.260Z,6.00
2018-11-02T18:54:14.902Z,6.00
2018-11-02T18:56:43.588Z,5.90
2018-11-02T18:59:15.616Z,5.90
2018-11-02T19:01:44.311Z,5.80
2018-11-02T19:04:12.989Z,5.80
2018-11-02T19:06:44.962Z,5.80
2018-11-02T19:09:16.860Z,5.70
2018-11-02T19:11:46.425Z,5.70
2018-11-02T19:14:15.094Z,5.70
2018-11-02T19:16:49.286Z,5.70
2018-11-02T19:19:17.728Z,5.60
2018-11-02T19:21:49.447Z,5.60
2018-11-02T19:24:18.015Z,5.60
2018-11-02T19:26:50.073Z,5.60
2018-11-02T19:29:18.685Z,5.50
2018-11-02T19:31:48.207Z,5.50
2018-11-02T19:34:18.964Z,5.50
2018-11-02T19:36:52.151Z,5.60
2018-11-02T19:39:26.283Z,5.60
2018-11-02T19:41:54.815Z,5.50
2018-11-02T19:44:24.336Z,5.50
2018-11-02T19:46:53.791Z,5.40
2018-11-02T19:49:22.511Z,5.40
2018-11-02T19:51:51.197Z,5.40
2018-11-02T19:54:20.848Z,5.30
2018-11-02T19:56:49.475Z,5.30
2018-11-02T19:59:18.364Z,5.30
2018-11-02T20:01:48.127Z,5.30
2018-11-02T20:04:16.818Z,5.30
2018-11-02T20:06:45.439Z,5.30
2018-11-02T20:09:14.200Z,5.20
2018-11-02T20:11:43.390Z,5.20
2018-11-02T20:14:12.009Z,5.20
2018-11-02T20:16:40.653Z,5.10
2018-11-02T20:19:09.288Z,5.10
2018-11-02T20:21:41.288Z,5.00
2018-11-02T20:24:09.960Z,5.00
2018-11-02T20:26:38.675Z,5.00
2018-11-02T20:29:08.501Z,5.00
2018-11-02T20:31:40.541Z,5.00
2018-11-02T20:34:10.130Z,5.00
2018-11-02T20:36:38.742Z,5.00
2018-11-02T20:39:09.866Z,4.90
2018-11-02T20:41:38.469Z,4.90
2018-11-02T20:44:07.149Z,5.00
2018-11-02T20:46:42.330Z,4.90
2018-11-02T20:49:15.697Z,4.90
2018-11-02T20:51:44.202Z,4.90
2018-11-02T20:54:15.807Z,4.90
2018-11-02T20:56:47.847Z,4.90
2018-11-02T20:59:16.419Z,4.90
2018-11-02T21:01:52.734Z,4.80
2018-11-02T21:04:23.284Z,4.70
2018-11-02T21:06:53.836Z,4.80
2018-11-02T21:09:23.805Z,4.70
2018-11-02T21:11:52.777Z,4.80
2018-11-02T21:14:21.363Z,4.70
2018-11-02T21:16:49.930Z,4.70
2018-11-02T21:19:19.458Z,4.70
2018-11-02T21:21:48.340Z,4.70
2018-11-02T21:24:16.970Z,4.60
2018-11-02T21:26:49.029Z,4.60
2018-11-02T21:29:18.767Z,4.50
2018-11-02T21:31:47.453Z,4.50
2018-11-02T21:34:16.048Z,4.40
2018-11-02T21:36:50.562Z,4.50
2018-11-02T21:39:25.957Z,4.40
2018-11-02T21:41:54.514Z,4.40
2018-11-02T21:44:23.912Z,4.30
2018-11-02T21:46:55.983Z,4.30
2018-11-02T21:49:24.610Z,4.30
2018-11-02T21:51:53.275Z,4.30
2018-11-02T21:54:21.989Z,4.30
2018-11-02T21:56:50.659Z,4.30
2018-11-02T21:59:21.421Z,4.30
2018-11-02T22:01:53.321Z,4.20
2018-11-02T22:04:22.070Z,4.30
2018-11-02T22:06:50.717Z,4.30
2018-11-02T22:09:19.368Z,4.40
2018-11-02T22:11:51.372Z,4.50
2018-11-02T22:14:31.950Z,4.50
2018-11-02T22:17:00.603Z,4.60
2018-11-02T22:19:36.631Z,4.60
2018-11-02T22:22:06.190Z,4.70
2018-11-02T22:24:34.866Z,4.70
2018-11-02T22:27:03.620Z,4.80
2018-11-02T22:29:38.199Z,4.80
2018-11-02T22:32:13.955Z,4.80
2018-11-02T22:34:44.488Z,4.80
2018-11-02T22:37:13.244Z,4.70
2018-11-02T22:39:41.881Z,4.70
2018-11-02T22:42:10.551Z,4.60
2018-11-02T22:44:39.294Z,4.60
2018-11-02T22:47:11.730Z,4.60
2018-11-02T22:49:47.882Z,4.50
2018-11-02T22:52:18.263Z,4.50
2018-11-02T22:57:57.762Z,4.40
2018-11-02T23:00:26.204Z,4.40
2018-11-02T23:02:55.386Z,4.30
2018-11-02T23:05:23.929Z,4.30
2018-11-02T23:07:52.562Z,4.30
2018-11-02T23:10:21.261Z,4.20
2018-11-02T23:12:49.966Z,4.20
2018-11-02T23:15:20.709Z,4.10
2018-11-02T23:17:49.416Z,4.10
2018-11-02T23:20:36.444Z,4.10
2018-11-02T23:23:06.173Z,4.00
2018-11-02T23:25:34.741Z,4.00
2018-11-02T23:28:06.764Z,4.00
2018-11-02T23:30:35.347Z,4.00
2018-11-02T23:33:06.200Z,3.90
2018-11-02T23:35:36.820Z,3.90
2018-11-02T23:38:13.524Z,3.90
2018-11-02T23:40:47.773Z,3.80
2018-11-02T23:43:18.468Z,3.80
2018-11-02T23:45:46.937Z,3.70
2018-11-02T23:48:19.755Z,3.70
2018-11-02T23:50:53.715Z,3.70
2018-11-02T23:53:22.223Z,3.70
2018-11-02T23:55:56.411Z,3.70
2018-11-02T23:58:24.941Z,3.60
